Time,TemperatureF,DewpointF,PressureIn,WindDirection,WindDirectionDegrees,WindSpeedMPH,WindSpeedGustMPH,Humidity,HourlyPrecipIn,Conditions,Clouds,dailyrainin,SoftwareType,DateUTC
2013-01-24 08:24:00,11.2,6.8,30.54,NW,317,1.0,1.0,82,0.00,,,0.00,Wunderground v.1.15,2013-01-24 13:24:00,
2013-01-24 08:29:00,11.2,6.8,30.54,NW,320,0.0,2.0,82,0.00,,,0.00,Wunderground v.1.15,2013-01-24 13:29:00,
2013-01-24 08:34:00,11.1,6.4,30.54,NW,321,0.0,1.0,81,0.00,,,0.00,Wunderground v.1.15,2013-01-24 13:34:00,
2013-01-24 08:39:00,10.9,6.5,30.55,NW,321,0.0,1.0,82,0.00,,,0.00,Wunderground v.1.15,2013-01-24 13:39:00,
2013-01-24 08:44:00,10.9,6.5,30.54,NW,321,0.0,0.0,82,0.00,,,0.00,Wunderground v.1.15,2013-01-24 13:44:00,
2013-01-24 08:49:00,11.1,7.2,30.54,NW,321,0.0,0.0,84,0.00,,,0.00,Wunderground v.1.15,2013-01-24 13:49:00,
2013-01-24 08:54:00,11.5,7.6,30.54,NNW,328,2.0,2.0,84,0.00,,,0.00,Wunderground v.1.15,2013-01-24 13:54:00,
2013-01-24 08:59:00,12.0,8.1,30.55,NNW,338,2.0,2.0,84,0.00,,,0.00,Wunderground v.1.15,2013-01-24 13:59:00,
2013-01-24 09:04:00,12.5,8.3,30.56,North,352,2.0,5.0,83,0.00,,,0.00,Wunderground v.1.15,2013-01-24 14:04:00,
2013-01-24 09:09:00,12.9,8.4,30.56,NW,309,4.0,6.0,82,0.00,,,0.00,Wunderground v.1.15,2013-01-24 14:09:00,
2013-01-24 09:14:00,13.1,8.4,30.56,NNW,344,3.0,7.0,81,0.00,,,0.00,Wunderground v.1.15,2013-01-24 14:14:00,
2013-01-24 09:20:00,13.5,8.8,30.57,North,5,4.0,4.0,81,0.00,,,0.00,Wunderground v.1.15,2013-01-24 14:20:00,
2013-01-24 09:25:00,13.8,8.8,30.58,North,355,4.0,8.0,80,0.00,,,0.00,Wunderground v.1.15,2013-01-24 14:25:00,
2013-01-24 09:30:00,14.2,8.9,30.58,NNW,343,3.0,5.0,79,0.00,,,0.00,Wunderground v.1.15,2013-01-24 14:30:00,
2013-01-24 09:35:00,14.6,9.0,30.58,NNW,337,4.0,8.0,78,0.00,,,0.00,Wunderground v.1.15,2013-01-24 14:35:00,
2013-01-24 09:40:00,14.7,9.1,30.59,NNW,348,6.0,7.0,78,0.00,,,0.00,Wunderground v.1.15,2013-01-24 14:40:00,
2013-01-24 09:45:00,15.0,9.4,30.59,North,1,5.0,8.0,78,0.00,,,0.00,Wunderground v.1.15,2013-01-24 14:45:00,
2013-01-24 09:50:00,15.3,9.4,30.59,NNW,340,5.0,7.0,77,0.00,,,0.00,Wunderground v.1.15,2013-01-24 14:50:00,
2013-01-24 09:55:00,15.6,9.4,30.59,North,6,7.0,11.0,76,0.00,,,0.00,Wunderground v.1.15,2013-01-24 14:55:00,
2013-01-24 10:00:00,15.8,9.6,30.59,North,10,7.0,7.0,76,0.00,,,0.00,Wunderground v.1.15,2013-01-24 15:00:00,
2013-01-24 10:05:00,16.0,8.9,30.60,NNE,27,8.0,12.0,73,0.00,,,0.00,Wunderground v.1.15,2013-01-24 15:05:00,
2013-01-24 10:10:00,16.4,9.6,30.61,North,357,5.0,8.0,74,0.00,,,0.00,Wunderground v.1.15,2013-01-24 15:10:00,
2013-01-24 10:15:00,16.6,9.8,30.61,North,6,9.0,10.0,74,0.00,,,0.00,Wunderground v.1.15,2013-01-24 15:15:00,
2013-01-24 10:20:00,16.8,9.3,30.62,North,4,4.0,8.0,72,0.00,,,0.00,Wunderground v.1.15,2013-01-24 15:20:00,
2013-01-24 10:25:00,17.0,9.2,30.62,NNE,15,7.0,10.0,71,0.00,,,0.00,Wunderground v.1.15,2013-01-24 15:25:00,
2013-01-24 10:30:00,17.1,9.3,30.62,North,359,7.0,8.0,71,0.00,,,0.00,Wunderground v.1.15,2013-01-24 15:30:00,
2013-01-24 10:35:00,17.6,9.8,30.63,North,349,10.0,11.0,71,0.00,,,0.00,Wunderground v.1.15,2013-01-24 15:35:00,
2013-01-24 10:40:00,17.8,8.7,30.63,NNE,20,7.0,10.0,67,0.00,,,0.00,Wunderground v.1.15,2013-01-24 15:40:00,
2013-01-24 10:45:00,18.0,9.2,30.63,NNE,27,6.0,10.0,68,0.00,,,0.00,Wunderground v.1.15,2013-01-24 15:45:00,
2013-01-24 10:50:00,18.2,9.1,30.63,NNE,28,7.0,10.0,67,0.00,,,0.00,Wunderground v.1.15,2013-01-24 15:50:00,
2013-01-24 10:55:00,18.3,8.1,30.63,ENE,73,4.0,10.0,64,0.00,,,0.00,Wunderground v.1.15,2013-01-24 15:55:00,
2013-01-24 11:00:00,18.9,8.7,30.63,NNW,347,7.0,7.0,64,0.00,,,0.00,Wunderground v.1.15,2013-01-24 16:00:00,
2013-01-24 11:06:00,19.1,7.8,30.64,NE,37,5.0,7.0,61,0.00,,,0.00,Wunderground v.1.15,2013-01-24 16:06:00,
2013-01-24 11:11:00,19.3,8.0,30.64,NNE,32,8.0,8.0,61,0.00,,,0.00,Wunderground v.1.15,2013-01-24 16:11:00,
2013-01-24 11:16:00,19.3,6.5,30.65,NNE,13,3.0,8.0,57,0.00,,,0.00,Wunderground v.1.15,2013-01-24 16:16:00,
2013-01-24 11:21:00,19.2,6.4,30.65,North,8,4.0,5.0,57,0.00,,,0.00,Wunderground v.1.15,2013-01-24 16:21:00,
2013-01-24 11:26:00,20.0,7.6,30.65,NNE,30,6.0,9.0,58,0.00,,,0.00,Wunderground v.1.15,2013-01-24 16:26:00,
2013-01-24 11:31:00,20.2,7.0,30.65,North,7,3.0,8.0,56,0.00,,,0.00,Wunderground v.1.15,2013-01-24 16:31:00,
2013-01-24 11:36:00,20.3,7.1,30.64,North,5,6.0,10.0,56,0.00,,,0.00,Wunderground v.1.15,2013-01-24 16:36:00,
2013-01-24 11:41:00,20.4,6.4,30.64,NE,41,7.0,7.0,54,0.00,,,0.00,Wunderground v.1.15,2013-01-24 16:41:00,
2013-01-24 11:46:00,20.4,7.6,30.64,NNE,20,6.0,12.0,57,0.00,,,0.00,Wunderground v.1.15,2013-01-24 16:46:00,
2013-01-24 11:51:00,20.5,5.2,30.64,NE,47,3.0,7.0,51,0.00,,,0.00,Wunderground v.1.15,2013-01-24 16:51:00,
2013-01-24 11:56:00,20.6,5.3,30.64,NE,44,5.0,12.0,51,0.00,,,0.00,Wunderground v.1.15,2013-01-24 16:56:00,
2013-01-24 12:01:00,20.6,5.7,30.64,ENE,67,4.0,11.0,52,0.00,,,0.00,Wunderground v.1.15,2013-01-24 17:01:00,
2013-01-24 12:06:00,20.6,6.2,30.64,NNE,18,9.0,13.0,53,0.00,,,0.00,Wunderground v.1.15,2013-01-24 17:06:00,
2013-01-24 12:12:00,20.8,6.3,30.64,NNE,23,3.0,7.0,53,0.00,,,0.00,Wunderground v.1.15,2013-01-24 17:12:00,
2013-01-24 12:17:00,20.9,6.0,30.63,North,8,6.0,9.0,52,0.00,,,0.00,Wunderground v.1.15,2013-01-24 17:17:00,
2013-01-24 12:22:00,21.4,6.9,30.63,NNE,14,5.0,10.0,53,0.00,,,0.00,Wunderground v.1.15,2013-01-24 17:22:00,
2013-01-24 12:27:00,21.5,6.6,30.63,NE,47,3.0,10.0,52,0.00,,,0.00,Wunderground v.1.15,2013-01-24 17:27:00,
2013-01-24 12:32:00,21.4,6.5,30.62,ENE,77,2.0,5.0,52,0.00,,,0.00,Wunderground v.1.15,2013-01-24 17:32:00,
2013-01-24 12:37:00,21.6,6.2,30.62,NE,44,5.0,8.0,51,0.00,,,0.00,Wunderground v.1.15,2013-01-24 17:37:00,
2013-01-24 12:42:00,21.5,5.3,30.62,North,349,5.0,7.0,49,0.00,,,0.00,Wunderground v.1.15,2013-01-24 17:42:00,
2013-01-24 12:47:00,21.6,5.4,30.62,NNW,342,1.0,7.0,49,0.00,,,0.00,Wunderground v.1.15,2013-01-24 17:47:00,
2013-01-24 12:52:00,21.8,5.5,30.61,ESE,113,2.0,5.0,49,0.00,,,0.00,Wunderground v.1.15,2013-01-24 17:52:00,
2013-01-24 12:58:00,21.6,5.4,30.61,NNE,16,7.0,8.0,49,0.00,,,0.00,Wunderground v.1.15,2013-01-24 17:58:00,
2013-01-24 13:03:00,21.9,6.1,30.61,NE,53,2.0,6.0,50,0.00,,,0.00,Wunderground v.1.15,2013-01-24 18:03:00,
2013-01-24 13:08:00,21.7,5.9,30.60,NNE,12,4.0,6.0,50,0.00,,,0.00,Wunderground v.1.15,2013-01-24 18:08:00,
2013-01-24 13:13:00,21.8,6.0,30.60,ENE,70,2.0,5.0,50,0.00,,,0.00,Wunderground v.1.15,2013-01-24 18:13:00,
2013-01-24 13:18:00,21.9,5.2,30.60,NNW,342,4.0,5.0,48,0.00,,,0.00,Wunderground v.1.15,2013-01-24 18:18:00,
2013-01-24 13:23:00,22.3,5.1,30.60,WSW,239,1.0,5.0,47,0.00,,,0.00,Wunderground v.1.15,2013-01-24 18:23:00,
2013-01-24 13:28:00,22.3,5.6,30.60,SSE,152,1.0,5.0,48,0.00,,,0.00,Wunderground v.1.15,2013-01-24 18:28:00,
2013-01-24 13:33:00,22.3,3.7,30.60,North,349,4.0,6.0,44,0.00,,,0.00,Wunderground v.1.15,2013-01-24 18:33:00,
2013-01-24 13:38:00,22.0,3.4,30.59,NW,323,2.0,6.0,44,0.00,,,0.00,Wunderground v.1.15,2013-01-24 18:38:00,
2013-01-24 13:43:00,21.9,2.8,30.59,East,83,2.0,4.0,43,0.00,,,0.00,Wunderground v.1.15,2013-01-24 18:43:00,
2013-01-24 13:48:00,22.3,4.1,30.59,North,357,3.0,12.0,45,0.00,,,0.00,Wunderground v.1.15,2013-01-24 18:48:00,
2013-01-24 13:53:00,22.2,3.1,30.59,NNW,337,2.0,5.0,43,0.00,,,0.00,Wunderground v.1.15,2013-01-24 18:53:00,
2013-01-24 13:58:00,22.1,4.0,30.58,NNE,22,4.0,7.0,45,0.00,,,0.00,Wunderground v.1.15,2013-01-24 18:58:00,
2013-01-24 14:03:00,22.4,4.2,30.59,NNE,18,3.0,6.0,45,0.00,,,0.00,Wunderground v.1.15,2013-01-24 19:03:00,
2013-01-24 14:08:00,22.6,3.9,30.58,ENE,71,3.0,6.0,44,0.00,,,0.00,Wunderground v.1.15,2013-01-24 19:08:00,
2013-01-24 14:13:00,22.8,4.1,30.58,SSW,197,2.0,8.0,44,0.00,,,0.00,Wunderground v.1.15,2013-01-24 19:13:00,
2013-01-24 14:18:00,23.0,3.3,30.58,North,354,2.0,8.0,42,0.00,,,0.00,Wunderground v.1.15,2013-01-24 19:18:00,
2013-01-24 14:23:00,23.1,2.3,30.58,ENE,59,4.0,6.0,40,0.00,,,0.00,Wunderground v.1.15,2013-01-24 19:23:00,
2013-01-24 14:28:00,23.1,3.4,30.57,NNE,19,2.0,6.0,42,0.00,,,0.00,Wunderground v.1.15,2013-01-24 19:28:00,
2013-01-24 14:33:00,23.1,1.8,30.57,NE,46,4.0,9.0,39,0.00,,,0.00,Wunderground v.1.15,2013-01-24 19:33:00,
2013-01-24 14:38:00,23.2,2.9,30.57,North,3,2.0,10.0,41,0.00,,,0.00,Wunderground v.1.15,2013-01-24 19:38:00,
2013-01-24 14:43:00,23.1,2.9,30.57,NNE,20,6.0,9.0,41,0.00,,,0.00,Wunderground v.1.15,2013-01-24 19:43:00,
2013-01-24 14:48:00,23.1,2.9,30.58,ENE,65,2.0,9.0,41,0.00,,,0.00,Wunderground v.1.15,2013-01-24 19:48:00,
2013-01-24 14:54:00,23.2,2.4,30.58,NNE,32,4.0,6.0,40,0.00,,,0.00,Wunderground v.1.15,2013-01-24 19:54:00,
2013-01-24 14:59:00,23.6,2.8,30.57,NNE,32,1.0,6.0,40,0.00,,,0.00,Wunderground v.1.15,2013-01-24 19:59:00,
2013-01-24 15:04:00,23.4,2.0,30.57,NNE,14,2.0,4.0,39,0.00,,,0.00,Wunderground v.1.15,2013-01-24 20:04:00,
2013-01-24 15:09:00,23.4,2.0,30.57,ENE,65,2.0,5.0,39,0.00,,,0.00,Wunderground v.1.15,2013-01-24 20:09:00,
2013-01-24 15:14:00,23.2,2.4,30.58,North,5,2.0,6.0,40,0.00,,,0.00,Wunderground v.1.15,2013-01-24 20:14:00,
2013-01-24 15:19:00,23.1,1.2,30.58,NNW,345,3.0,7.0,38,0.00,,,0.00,Wunderground v.1.15,2013-01-24 20:19:00,
2013-01-24 15:24:00,22.8,1.5,30.58,North,349,3.0,6.0,39,0.00,,,0.00,Wunderground v.1.15,2013-01-24 20:24:00,
2013-01-24 15:29:00,22.6,1.9,30.58,North,10,6.0,6.0,40,0.00,,,0.00,Wunderground v.1.15,2013-01-24 20:29:00,
2013-01-24 15:34:00,22.8,1.5,30.58,NNE,13,0.0,8.0,39,0.00,,,0.00,Wunderground v.1.15,2013-01-24 20:34:00,
2013-01-24 15:39:00,22.8,3.1,30.57,South,188,2.0,8.0,42,0.00,,,0.00,Wunderground v.1.15,2013-01-24 20:39:00,
2013-01-24 15:44:00,23.5,3.7,30.58,East,79,1.0,3.0,42,0.00,,,0.00,Wunderground v.1.15,2013-01-24 20:44:00,
2013-01-24 15:49:00,23.2,2.9,30.57,NE,56,1.0,4.0,41,0.00,,,0.00,Wunderground v.1.15,2013-01-24 20:49:00,
2013-01-24 15:54:00,23.4,3.1,30.57,SW,229,2.0,2.0,41,0.00,,,0.00,Wunderground v.1.15,2013-01-24 20:54:00,
2013-01-24 15:59:00,24.2,2.2,30.57,SE,143,1.0,4.0,38,0.00,,,0.00,Wunderground v.1.15,2013-01-24 20:59:00,
2013-01-24 16:04:00,24.3,1.7,30.56,WSW,240,1.0,3.0,37,0.00,,,0.00,Wunderground v.1.15,2013-01-24 21:04:00,
2013-01-24 16:09:00,23.7,2.3,30.56,NNW,330,2.0,3.0,39,0.00,,,0.00,Wunderground v.1.15,2013-01-24 21:09:00,
2013-01-24 16:14:00,23.1,1.8,30.56,WNW,297,1.0,5.0,39,0.00,,,0.00,Wunderground v.1.15,2013-01-24 21:14:00,
2013-01-24 16:19:00,22.9,3.2,30.57,SW,221,1.0,5.0,42,0.00,,,0.00,Wunderground v.1.15,2013-01-24 21:19:00,
2013-01-24 16:24:00,23.1,2.9,30.57,NNW,329,1.0,3.0,41,0.00,,,0.00,Wunderground v.1.15,2013-01-24 21:24:00,
2013-01-24 16:29:00,22.7,2.5,30.56,North,8,4.0,5.0,41,0.00,,,0.00,Wunderground v.1.15,2013-01-24 21:29:00,
2013-01-24 16:34:00,22.4,2.2,30.56,NNE,13,2.0,3.0,41,0.00,,,0.00,Wunderground v.1.15,2013-01-24 21:34:00,
2013-01-24 16:39:00,22.2,2.6,30.56,NNE,15,1.0,3.0,42,0.00,,,0.00,Wunderground v.1.15,2013-01-24 21:39:00,
2013-01-24 16:44:00,22.1,2.5,30.56,North,350,1.0,7.0,42,0.00,,,0.00,Wunderground v.1.15,2013-01-24 21:44:00,
2013-01-24 16:49:00,22.0,3.4,30.56,SSW,195,2.0,7.0,44,0.00,,,0.00,Wunderground v.1.15,2013-01-24 21:49:00,
2013-01-24 16:55:00,21.7,2.6,30.56,West,278,1.0,2.0,43,0.00,,,0.00,Wunderground v.1.15,2013-01-24 21:55:00,
2013-01-24 17:00:00,21.5,2.4,30.56,NNW,328,0.0,1.0,43,0.00,,,0.00,Wunderground v.1.15,2013-01-24 22:00:00,
2013-01-24 17:05:00,21.3,2.2,30.56,NW,314,1.0,5.0,43,0.00,,,0.00,Wunderground v.1.15,2013-01-24 22:05:00,
2013-01-24 17:10:00,21.1,3.0,30.55,West,277,1.0,2.0,45,0.00,,,0.00,Wunderground v.1.15,2013-01-24 22:10:00,
2013-01-24 17:15:00,21.1,4.0,30.55,North,356,2.0,3.0,47,0.00,,,0.00,Wunderground v.1.15,2013-01-24 22:15:00,
2013-01-24 17:20:00,21.1,3.5,30.55,North,1,1.0,2.0,46,0.00,,,0.00,Wunderground v.1.15,2013-01-24 22:20:00,
2013-01-24 17:25:00,21.0,3.4,30.55,SW,226,1.0,3.0,46,0.00,,,0.00,Wunderground v.1.15,2013-01-24 22:25:00,
2013-01-24 17:30:00,20.9,4.3,30.55,North,355,1.0,2.0,48,0.00,,,0.00,Wunderground v.1.15,2013-01-24 22:30:00,
2013-01-24 17:35:00,20.8,3.7,30.55,WSW,249,0.0,2.0,47,0.00,,,0.00,Wunderground v.1.15,2013-01-24 22:35:00,
2013-01-24 17:40:00,20.5,3.4,30.56,South,191,0.0,0.0,47,0.00,,,0.00,Wunderground v.1.15,2013-01-24 22:40:00,
2013-01-24 17:45:00,20.2,4.1,30.56,South,183,2.0,2.0,49,0.00,,,0.00,Wunderground v.1.15,2013-01-24 22:45:00,
2013-01-24 17:50:00,20.0,3.9,30.56,SSW,212,1.0,1.0,49,0.00,,,0.00,Wunderground v.1.15,2013-01-24 22:50:00,
2013-01-24 17:55:00,19.6,3.9,30.56,SSW,203,0.0,1.0,50,0.00,,,0.00,Wunderground v.1.15,2013-01-24 22:55:00,
2013-01-24 18:00:00,19.4,3.8,30.56,South,174,0.0,0.0,50,0.00,,,0.00,Wunderground v.1.15,2013-01-24 23:00:00,
2013-01-24 18:05:00,19.1,4.8,30.56,SW,217,1.0,1.0,53,0.00,,,0.00,Wunderground v.1.15,2013-01-24 23:05:00,
2013-01-24 18:10:00,18.9,5.0,30.56,SSW,212,0.0,0.0,54,0.00,,,0.00,Wunderground v.1.15,2013-01-24 23:10:00,
2013-01-24 18:15:00,18.7,4.8,30.56,SSW,213,0.0,0.0,54,0.00,,,0.00,Wunderground v.1.15,2013-01-24 23:15:00,
2013-01-24 18:20:00,18.4,5.3,30.55,NW,308,1.0,1.0,56,0.00,,,0.00,Wunderground v.1.15,2013-01-24 23:20:00,
2013-01-24 18:25:00,18.3,4.8,30.55,WSW,250,1.0,2.0,55,0.00,,,0.00,Wunderground v.1.15,2013-01-24 23:25:00,
2013-01-24 18:30:00,18.3,5.2,30.55,WSW,239,0.0,1.0,56,0.00,,,0.00,Wunderground v.1.15,2013-01-24 23:30:00,
2013-01-24 18:35:00,18.2,5.5,30.55,SE,139,0.0,1.0,57,0.00,,,0.00,Wunderground v.1.15,2013-01-24 23:35:00,
2013-01-24 18:40:00,18.2,5.5,30.55,ESE,104,0.0,0.0,57,0.00,,,0.00,Wunderground v.1.15,2013-01-24 23:40:00,
2013-01-24 18:45:00,18.1,6.2,30.55,South,191,0.0,1.0,59,0.00,,,0.00,Wunderground v.1.15,2013-01-24 23:45:00,
2013-01-24 18:50:00,17.9,6.0,30.56,SSW,193,0.0,0.0,59,0.00,,,0.00,Wunderground v.1.15,2013-01-24 23:50:00,
2013-01-24 18:55:00,17.8,6.2,30.55,West,276,0.0,0.0,60,0.00,,,0.00,Wunderground v.1.15,2013-01-24 23:55:00,
2013-01-24 19:00:00,17.8,6.6,30.54,NW,316,0.0,1.0,61,0.00,,,0.00,Wunderground v.1.15,2013-01-25 00:00:00,
2013-01-24 19:05:00,18.0,7.2,30.54,SW,221,1.0,3.0,62,0.00,,,0.00,Wunderground v.1.15,2013-01-25 00:05:00,
2013-01-24 19:10:00,18.2,6.3,30.54,SW,215,1.0,2.0,59,0.00,,,0.00,Wunderground v.1.15,2013-01-25 00:10:00,
2013-01-24 19:15:00,18.5,5.8,30.55,WSW,248,1.0,3.0,57,0.00,,,0.00,Wunderground v.1.15,2013-01-25 00:15:00,
2013-01-24 19:20:00,18.5,6.2,30.55,NW,316,1.0,1.0,58,0.00,,,0.00,Wunderground v.1.15,2013-01-25 00:20:00,
2013-01-24 19:25:00,18.7,6.7,30.54,SW,236,2.0,2.0,59,0.00,,,0.00,Wunderground v.1.15,2013-01-25 00:25:00,
2013-01-24 19:30:00,18.8,6.8,30.53,NW,323,2.0,2.0,59,0.00,,,0.00,Wunderground v.1.15,2013-01-25 00:30:00,
2013-01-24 19:35:00,18.9,7.3,30.54,SW,228,1.0,3.0,60,0.00,,,0.00,Wunderground v.1.15,2013-01-25 00:35:00,
2013-01-24 19:40:00,18.9,6.9,30.54,SSW,213,2.0,3.0,59,0.00,,,0.00,Wunderground v.1.15,2013-01-25 00:40:00,
2013-01-24 19:45:00,19.1,7.1,30.53,SSW,213,2.0,6.0,59,0.00,,,0.00,Wunderground v.1.15,2013-01-25 00:45:00,
2013-01-24 19:50:00,19.1,7.5,30.53,SW,228,3.0,4.0,60,0.00,,,0.00,Wunderground v.1.15,2013-01-25 00:50:00,
2013-01-24 19:55:00,19.1,7.1,30.53,West,270,1.0,4.0,59,0.00,,,0.00,Wunderground v.1.15,2013-01-25 00:55:00,
2013-01-24 20:00:00,19.1,7.5,30.53,WNW,287,2.0,2.0,60,0.00,,,0.00,Wunderground v.1.15,2013-01-25 01:00:00,
2013-01-24 20:05:00,19.1,7.5,30.53,South,177,2.0,4.0,60,0.00,,,0.00,Wunderground v.1.15,2013-01-25 01:05:00,
2013-01-24 20:10:00,19.1,7.8,30.52,West,267,2.0,3.0,61,0.00,,,0.00,Wunderground v.1.15,2013-01-25 01:10:00,
2013-01-24 20:15:00,19.1,7.8,30.52,SW,217,2.0,5.0,61,0.00,,,0.00,Wunderground v.1.15,2013-01-25 01:15:00,
2013-01-24 20:20:00,19.0,8.1,30.52,WSW,245,4.0,4.0,62,0.00,,,0.00,Wunderground v.1.15,2013-01-25 01:20:00,
2013-01-24 20:26:00,19.0,8.5,30.52,SSW,194,2.0,4.0,63,0.00,,,0.00,Wunderground v.1.15,2013-01-25 01:26:00,
2013-01-24 20:31:00,18.9,8.4,30.51,SW,224,2.0,3.0,63,0.00,,,0.00,Wunderground v.1.15,2013-01-25 01:31:00,
2013-01-24 20:36:00,18.9,8.4,30.52,SSW,194,2.0,5.0,63,0.00,,,0.00,Wunderground v.1.15,2013-01-25 01:36:00,
2013-01-24 20:41:00,18.8,8.6,30.51,South,191,4.0,6.0,64,0.00,,,0.00,Wunderground v.1.15,2013-01-25 01:41:00,
2013-01-24 20:46:00,18.9,8.7,30.51,WNW,291,1.0,6.0,64,0.00,,,0.00,Wunderground v.1.15,2013-01-25 01:46:00,
2013-01-24 20:51:00,18.9,8.4,30.52,SW,215,2.0,4.0,63,0.00,,,0.00,Wunderground v.1.15,2013-01-25 01:51:00,
2013-01-24 20:56:00,19.0,8.8,30.52,South,173,3.0,4.0,64,0.00,,,0.00,Wunderground v.1.15,2013-01-25 01:56:00,
2013-01-24 21:01:00,19.0,8.5,30.51,SSW,208,3.0,5.0,63,0.00,,,0.00,Wunderground v.1.15,2013-01-25 02:01:00,
2013-01-24 21:06:00,19.0,8.5,30.51,South,191,4.0,5.0,63,0.00,,,0.00,Wunderground v.1.15,2013-01-25 02:06:00,
2013-01-24 21:11:00,19.1,8.6,30.51,SSW,212,3.0,4.0,63,0.00,,,0.00,Wunderground v.1.15,2013-01-25 02:11:00,
2013-01-24 21:16:00,19.1,8.6,30.51,SSW,203,3.0,4.0,63,0.00,,,0.00,Wunderground v.1.15,2013-01-25 02:16:00,
2013-01-24 21:22:00,19.1,8.6,30.51,South,186,2.0,3.0,63,0.00,,,0.00,Wunderground v.1.15,2013-01-25 02:22:00,
2013-01-24 21:27:00,19.1,8.9,30.51,SW,226,1.0,3.0,64,0.00,,,0.00,Wunderground v.1.15,2013-01-25 02:27:00,
2013-01-24 21:32:00,19.1,8.6,30.51,South,179,3.0,4.0,63,0.00,,,0.00,Wunderground v.1.15,2013-01-25 02:32:00,
2013-01-24 21:37:00,19.1,8.6,30.50,WSW,253,2.0,4.0,63,0.00,,,0.00,Wunderground v.1.15,2013-01-25 02:37:00,
2013-01-24 21:42:00,19.1,8.6,30.50,SSE,162,3.0,4.0,63,0.00,,,0.00,Wunderground v.1.15,2013-01-25 02:42:00,
2013-01-24 21:47:00,19.1,8.6,30.51,South,173,1.0,5.0,63,0.00,,,0.00,Wunderground v.1.15,2013-01-25 02:47:00,
2013-01-24 21:52:00,19.2,8.7,30.50,South,186,1.0,3.0,63,0.00,,,0.00,Wunderground v.1.15,2013-01-25 02:52:00,
2013-01-24 21:57:00,19.1,8.2,30.50,SSE,150,2.0,5.0,62,0.00,,,0.00,Wunderground v.1.15,2013-01-25 02:57:00,
2013-01-24 22:02:00,19.2,8.3,30.51,SSE,162,2.0,4.0,62,0.00,,,0.00,Wunderground v.1.15,2013-01-25 03:02:00,
2013-01-24 22:07:00,19.2,8.3,30.50,NNW,332,1.0,4.0,62,0.00,,,0.00,Wunderground v.1.15,2013-01-25 03:07:00,
2013-01-24 22:12:00,19.2,7.9,30.50,SSE,162,3.0,5.0,61,0.00,,,0.00,Wunderground v.1.15,2013-01-25 03:12:00,
2013-01-24 22:17:00,19.2,8.3,30.49,SSW,203,3.0,5.0,62,0.00,,,0.00,Wunderground v.1.15,2013-01-25 03:17:00,
2013-01-24 22:22:00,19.2,7.9,30.50,South,190,5.0,5.0,61,0.00,,,0.00,Wunderground v.1.15,2013-01-25 03:22:00,
2013-01-24 22:27:00,19.1,8.2,30.49,SSW,197,4.0,5.0,62,0.00,,,0.00,Wunderground v.1.15,2013-01-25 03:27:00,
2013-01-24 22:32:00,19.1,7.8,30.48,South,173,4.0,6.0,61,0.00,,,0.00,Wunderground v.1.15,2013-01-25 03:32:00,
2013-01-24 22:37:00,19.1,7.5,30.48,SW,221,2.0,7.0,60,0.00,,,0.00,Wunderground v.1.15,2013-01-25 03:37:00,
2013-01-24 22:42:00,19.1,7.8,30.47,SSE,160,4.0,5.0,61,0.00,,,0.00,Wunderground v.1.15,2013-01-25 03:42:00,
2013-01-24 22:47:00,19.0,7.7,30.47,South,187,3.0,7.0,61,0.00,,,0.00,Wunderground v.1.15,2013-01-25 03:47:00,
2013-01-24 22:52:00,19.0,7.7,30.47,SSE,166,4.0,5.0,61,0.00,,,0.00,Wunderground v.1.15,2013-01-25 03:52:00,
2013-01-24 22:57:00,19.0,7.7,30.47,SW,217,5.0,5.0,61,0.00,,,0.00,Wunderground v.1.15,2013-01-25 03:57:00,
2013-01-24 23:02:00,19.0,7.7,30.46,South,174,3.0,5.0,61,0.00,,,0.00,Wunderground v.1.15,2013-01-25 04:02:00,
2013-01-24 23:07:00,19.0,7.4,30.46,South,190,7.0,8.0,60,0.00,,,0.00,Wunderground v.1.15,2013-01-25 04:07:00,
2013-01-24 23:12:00,19.1,7.1,30.46,SSW,195,3.0,5.0,59,0.00,,,0.00,Wunderground v.1.15,2013-01-25 04:12:00,
2013-01-24 23:17:00,19.1,7.1,30.46,SSE,165,6.0,7.0,59,0.00,,,0.00,Wunderground v.1.15,2013-01-25 04:17:00,
2013-01-24 23:22:00,19.1,7.1,30.47,SSE,156,4.0,5.0,59,0.00,,,0.00,Wunderground v.1.15,2013-01-25 04:22:00,
2013-01-24 23:27:00,19.0,6.6,30.47,South,181,3.0,6.0,58,0.00,,,0.00,Wunderground v.1.15,2013-01-25 04:27:00,
2013-01-24 23:32:00,19.0,7.0,30.47,South,186,3.0,6.0,59,0.00,,,0.00,Wunderground v.1.15,2013-01-25 04:32:00,
2013-01-24 23:37:00,19.0,7.4,30.46,SSE,162,3.0,6.0,60,0.00,,,0.00,Wunderground v.1.15,2013-01-25 04:37:00,
2013-01-24 23:42:00,19.0,7.4,30.46,SSE,158,3.0,6.0,60,0.00,,,0.00,Wunderground v.1.15,2013-01-25 04:42:00,
2013-01-24 23:47:00,19.0,7.4,30.46,South,184,5.0,6.0,60,0.00,,,0.00,Wunderground v.1.15,2013-01-25 04:47:00,
2013-01-24 23:52:00,18.9,7.7,30.46,South,169,3.0,4.0,61,0.00,,,0.00,Wunderground v.1.15,2013-01-25 04:52:00,
2013-01-24 23:57:00,18.9,7.3,30.46,WSW,248,3.0,5.0,60,0.00,,,0.00,Wunderground v.1.15,2013-01-25 04:57:00,